createdAt,value
2023-03-30T00:00:43.147Z,5.28
2023-03-30T00:03:10.468Z,3.87
2023-03-30T00:05:38.123Z,9.32
2023-03-30T00:08:05.616Z,3.60
2023-03-30T00:10:32.444Z,3.17
2023-03-30T00:12:58.874Z,3.85
2023-03-30T00:15:25.356Z,6.37
2023-03-30T00:17:55.049Z,4.18
2023-03-30T00:20:22.409Z,5.43
2023-03-30T00:22:49.660Z,6.65
2023-03-30T00:25:17.825Z,7.13
2023-03-30T00:27:45.161Z,5.57
2023-03-30T00:30:15.205Z,5.60
2023-03-30T00:32:43.252Z,3.53
2023-03-30T00:35:10.669Z,4.43
2023-03-30T00:37:39.636Z,6.57
2023-03-30T00:40:09.473Z,3.67
2023-03-30T00:42:36.964Z,5.25
2023-03-30T00:45:18.749Z,4.85
2023-03-30T00:47:50.491Z,3.83
2023-03-30T00:50:21.927Z,5.35
2023-03-30T00:52:52.478Z,3.37
2023-03-30T00:55:21.987Z,2.63
2023-03-30T00:57:51.217Z,4.85
2023-03-30T01:00:18.661Z,5.13
2023-03-30T01:02:50.568Z,3.72
2023-03-30T01:05:17.198Z,4.40
2023-03-30T01:07:46.368Z,2.85
2023-03-30T01:10:13.667Z,4.07
2023-03-30T01:12:41.056Z,2.90
2023-03-30T01:15:08.677Z,4.15
2023-03-30T01:17:44.172Z,3.20
2023-03-30T01:20:28.931Z,3.78
2023-03-30T01:23:04.322Z,3.65
2023-03-30T01:26:11.436Z,2.80
2023-03-30T01:28:57.958Z,3.42
2023-03-30T01:31:45.944Z,7.30
2023-03-30T01:34:24.638Z,5.35
2023-03-30T01:37:12.369Z,1.92
2023-03-30T01:39:48.640Z,5.65
2023-03-30T01:42:35.470Z,2.53
2023-03-30T01:45:26.704Z,1.73
2023-03-30T01:47:58.507Z,6.72
2023-03-30T01:50:31.585Z,11.43
2023-03-30T01:53:08.744Z,5.18
2023-03-30T01:55:41.841Z,2.80
2023-03-30T01:58:17.440Z,3.83
2023-03-30T02:00:48.666Z,3.35
2023-03-30T02:03:20.044Z,1.85
2023-03-30T02:05:50.983Z,2.90
2023-03-30T02:08:20.757Z,2.35
2023-03-30T02:10:48.631Z,2.67
2023-03-30T02:13:17.588Z,2.47
2023-03-30T02:15:58.891Z,2.72
2023-03-30T02:18:25.933Z,2.97
2023-03-30T02:20:53.022Z,6.53
2023-03-30T02:23:23.617Z,5.20
2023-03-30T02:25:50.213Z,2.33
2023-03-30T02:28:16.678Z,8.52
2023-03-30T02:30:45.210Z,4.57
2023-03-30T02:33:24.535Z,3.00
2023-03-30T02:36:08.357Z,1.40
2023-03-30T02:38:59.387Z,2.55
2023-03-30T02:41:47.710Z,3.25
2023-03-30T02:44:23.256Z,4.43
2023-03-30T02:47:12.176Z,2.60
2023-03-30T02:49:44.643Z,4.23
2023-03-30T02:52:24.251Z,2.67
2023-03-30T02:55:10.787Z,3.03
2023-03-30T02:57:54.965Z,5.90
2023-03-30T03:00:44.543Z,5.43
2023-03-30T03:03:19.971Z,4.27
2023-03-30T03:05:47.480Z,4.30
2023-03-30T03:08:15.764Z,2.30
2023-03-30T03:10:42.175Z,2.88
2023-03-30T03:13:09.975Z,3.35
2023-03-30T03:15:37.916Z,3.00
2023-03-30T03:18:05.973Z,3.50
2023-03-30T03:20:32.556Z,2.83
2023-03-30T03:22:58.954Z,3.92
2023-03-30T03:25:25.333Z,1.73
2023-03-30T03:27:51.780Z,5.53
2023-03-30T03:30:18.392Z,3.10
2023-03-30T03:32:44.870Z,2.60
2023-03-30T03:35:11.483Z,2.92
2023-03-30T03:37:38.018Z,6.97
2023-03-30T03:40:06.504Z,2.33
2023-03-30T03:42:32.944Z,4.65
2023-03-30T03:44:59.536Z,2.50
2023-03-30T03:47:26.091Z,5.13
2023-03-30T03:49:52.551Z,3.63
2023-03-30T03:52:18.906Z,2.50
2023-03-30T03:54:45.504Z,3.33
2023-03-30T03:57:11.952Z,1.98
2023-03-30T03:59:38.602Z,2.42
2023-03-30T04:02:05.676Z,2.05
2023-03-30T04:04:32.186Z,3.33
2023-03-30T04:06:58.601Z,1.92
2023-03-30T04:09:25.940Z,2.13
2023-03-30T04:11:52.339Z,2.63
2023-03-30T04:14:18.870Z,2.97
2023-03-30T04:16:45.359Z,2.63
2023-03-30T04:19:12.756Z,2.72
2023-03-30T04:21:41.067Z,3.00
2023-03-30T04:24:12.124Z,4.78
2023-03-30T04:26:38.747Z,3.05
2023-03-30T04:29:06.753Z,2.63
2023-03-30T04:31:35.361Z,2.30
2023-03-30T04:34:02.755Z,1.52
2023-03-30T04:36:29.485Z,2.47
2023-03-30T04:38:59.550Z,6.70
2023-03-30T04:41:35.895Z,2.10
2023-03-30T04:44:07.711Z,4.30
2023-03-30T04:46:34.147Z,5.00
2023-03-30T04:49:00.903Z,3.28
2023-03-30T04:51:28.212Z,6.25
2023-03-30T04:53:55.150Z,3.17
2023-03-30T04:56:21.873Z,3.72
2023-03-30T04:58:48.460Z,6.05
2023-03-30T05:01:15.420Z,1.92
2023-03-30T05:03:41.909Z,1.45
2023-03-30T05:06:08.473Z,2.43
2023-03-30T05:08:35.147Z,5.47
2023-03-30T05:11:04.913Z,3.42
2023-03-30T05:13:31.720Z,4.07
2023-03-30T05:15:58.264Z,1.52
2023-03-30T05:18:24.766Z,2.87
2023-03-30T05:20:51.421Z,4.43
2023-03-30T05:23:17.980Z,3.97
2023-03-30T05:25:46.451Z,1.60
2023-03-30T05:28:12.919Z,3.33
2023-03-30T05:30:39.378Z,4.20
2023-03-30T05:33:05.831Z,3.08
2023-03-30T05:35:32.296Z,7.55
2023-03-30T05:37:58.847Z,4.95
2023-03-30T05:40:25.286Z,8.00
2023-03-30T05:42:51.789Z,5.70
2023-03-30T05:45:18.188Z,6.10
2023-03-30T05:47:44.642Z,3.70
2023-03-30T05:50:11.922Z,2.38
2023-03-30T05:52:38.374Z,3.50
2023-03-30T05:55:05.222Z,4.20
2023-03-30T05:57:31.775Z,4.57
2023-03-30T05:59:58.191Z,9.98
2023-03-30T06:02:25.197Z,6.70
2023-03-30T06:04:52.200Z,4.80
2023-03-30T06:07:20.220Z,5.53
2023-03-30T06:09:47.397Z,7.32
2023-03-30T06:12:13.921Z,7.70
2023-03-30T06:14:40.310Z,4.03
2023-03-30T06:17:07.656Z,4.65
2023-03-30T06:19:34.033Z,9.13
2023-03-30T06:22:00.679Z,6.35
2023-03-30T06:24:27.094Z,12.65
2023-03-30T06:26:53.521Z,6.40
2023-03-30T06:29:20.525Z,9.52
2023-03-30T06:31:47.899Z,8.17
2023-03-30T06:34:14.488Z,9.52
2023-03-30T06:36:44.327Z,10.73
2023-03-30T06:39:14.365Z,8.48
2023-03-30T06:41:41.034Z,8.40
2023-03-30T06:44:10.324Z,6.07
2023-03-30T06:46:36.945Z,12.05
2023-03-30T06:49:03.318Z,5.95
2023-03-30T06:51:29.870Z,11.38
2023-03-30T06:53:56.493Z,12.02
2023-03-30T06:56:23.102Z,10.73
2023-03-30T06:58:49.668Z,9.15
2023-03-30T07:01:16.768Z,13.10
2023-03-30T07:03:43.250Z,23.63
2023-03-30T07:06:10.602Z,8.30
2023-03-30T07:08:37.289Z,7.47
2023-03-30T07:11:05.335Z,10.10
2023-03-30T07:13:31.994Z,12.77
2023-03-30T07:15:58.860Z,10.95
2023-03-30T07:18:26.014Z,10.73
2023-03-30T07:20:52.491Z,7.57
2023-03-30T07:23:20.362Z,7.55
2023-03-30T07:25:47.048Z,9.77
2023-03-30T07:28:14.212Z,10.23
2023-03-30T07:30:40.895Z,13.82
2023-03-30T07:33:07.604Z,14.67
2023-03-30T07:35:34.104Z,13.23
2023-03-30T07:38:03.763Z,9.02
2023-03-30T07:40:30.979Z,10.75
2023-03-30T07:42:57.698Z,9.50
2023-03-30T07:45:24.138Z,4.93
2023-03-30T07:47:50.821Z,10.13
2023-03-30T07:50:17.408Z,17.13
2023-03-30T07:52:44.012Z,12.50
2023-03-30T07:55:11.044Z,7.40
2023-03-30T07:57:37.683Z,10.93
2023-03-30T08:00:06.203Z,6.82
2023-03-30T08:02:32.667Z,4.93
2023-03-30T08:05:00.177Z,10.05
2023-03-30T08:07:27.990Z,8.57
2023-03-30T08:09:57.424Z,8.93
2023-03-30T08:12:23.854Z,11.95
2023-03-30T08:14:50.407Z,10.93
2023-03-30T08:17:17.170Z,8.95
2023-03-30T08:19:43.609Z,8.27
2023-03-30T08:22:09.988Z,5.70
2023-03-30T08:24:36.531Z,12.45
2023-03-30T08:27:03.069Z,12.57
2023-03-30T08:29:31.498Z,10.10
2023-03-30T08:31:58.028Z,13.07
2023-03-30T08:34:24.436Z,12.07
2023-03-30T08:36:50.811Z,11.30
2023-03-30T08:39:17.221Z,14.60
2023-03-30T08:42:00.584Z,11.38
2023-03-30T08:44:37.040Z,14.88
2023-03-30T08:47:08.598Z,16.70
2023-03-30T08:49:42.463Z,12.25
2023-03-30T08:52:16.006Z,14.35
2023-03-30T08:54:42.507Z,13.38
2023-03-30T08:57:32.358Z,12.90
2023-03-30T09:00:24.473Z,11.43
2023-03-30T09:02:55.419Z,9.23
2023-03-30T09:05:29.701Z,8.38
2023-03-30T09:08:05.196Z,14.23
2023-03-30T09:10:39.473Z,7.07
2023-03-30T09:13:06.675Z,14.17
2023-03-30T09:15:42.682Z,15.65
2023-03-30T09:18:27.374Z,16.60
2023-03-30T09:20:58.445Z,11.25
2023-03-30T09:23:29.612Z,19.15
2023-03-30T09:26:22.026Z,9.17
2023-03-30T09:28:53.404Z,9.75
2023-03-30T09:31:33.329Z,9.38
2023-03-30T09:34:16.743Z,8.13
2023-03-30T09:37:01.020Z,16.35
2023-03-30T09:39:32.225Z,10.13
2023-03-30T09:42:27.789Z,9.07
2023-03-30T09:45:22.594Z,12.48
2023-03-30T09:47:49.161Z,11.43
2023-03-30T09:50:23.578Z,14.75
2023-03-30T09:52:59.083Z,9.60
2023-03-30T09:55:30.284Z,11.55
2023-03-30T09:58:20.928Z,11.77
2023-03-30T10:01:12.478Z,10.00
2023-03-30T10:03:44.032Z,13.98
2023-03-30T10:06:15.973Z,11.63
2023-03-30T10:08:48.509Z,13.07
2023-03-30T10:11:20.352Z,15.55
2023-03-30T10:13:49.813Z,16.10
2023-03-30T10:16:27.310Z,18.40
2023-03-30T10:18:59.400Z,12.50
2023-03-30T10:21:31.136Z,10.32
2023-03-30T10:24:10.240Z,15.73
2023-03-30T10:26:38.075Z,15.85
2023-03-30T10:29:10.920Z,14.07
2023-03-30T10:31:40.064Z,16.93
2023-03-30T10:34:16.639Z,21.02
2023-03-30T10:36:47.970Z,9.70
2023-03-30T10:39:30.186Z,10.60
2023-03-30T10:42:00.071Z,11.60
2023-03-30T10:44:31.109Z,11.53
2023-03-30T10:47:10.105Z,19.15
2023-03-30T10:49:47.908Z,16.90
2023-03-30T10:52:33.160Z,16.38
2023-03-30T10:55:06.587Z,18.27
2023-03-30T10:58:02.454Z,10.77
2023-03-30T11:00:52.282Z,12.40
2023-03-30T11:03:29.263Z,14.43
2023-03-30T11:06:03.399Z,14.95
2023-03-30T11:08:35.746Z,15.30
2023-03-30T11:11:04.273Z,13.00
2023-03-30T11:13:38.855Z,15.55
2023-03-30T11:16:15.779Z,21.60
2023-03-30T11:19:03.867Z,20.33
2023-03-30T11:21:37.371Z,17.90
2023-03-30T11:24:14.848Z,13.63
2023-03-30T11:26:53.682Z,13.23
2023-03-30T11:29:45.649Z,10.63
2023-03-30T11:32:15.166Z,12.00
2023-03-30T11:34:53.843Z,12.93
2023-03-30T11:37:29.771Z,16.23
2023-03-30T11:40:13.839Z,11.73
2023-03-30T11:42:40.419Z,10.60
2023-03-30T11:45:52.202Z,13.15
2023-03-30T11:48:44.804Z,12.32
2023-03-30T11:51:11.128Z,15.93
2023-03-30T11:54:04.270Z,12.35
2023-03-30T11:56:49.383Z,12.85
2023-03-30T11:59:28.902Z,14.23
2023-03-30T12:02:29.568Z,13.02
2023-03-30T12:05:17.329Z,17.73
2023-03-30T12:07:52.705Z,9.10
2023-03-30T12:10:28.398Z,11.15
2023-03-30T12:12:56.363Z,8.43
2023-03-30T12:15:42.709Z,11.77
2023-03-30T12:18:19.374Z,9.80
2023-03-30T12:20:57.441Z,10.85
2023-03-30T12:23:33.580Z,11.18
2023-03-30T12:26:07.103Z,7.13
2023-03-30T12:29:56.500Z,8.10
2023-03-30T12:31:59.886Z,15.07
2023-03-30T12:34:29.299Z,13.00
2023-03-30T12:37:28.626Z,15.60
2023-03-30T12:40:04.287Z,15.60
2023-03-30T12:42:34.725Z,15.55
2023-03-30T12:45:22.036Z,12.20
2023-03-30T12:47:53.207Z,12.82
2023-03-30T12:50:25.705Z,13.23
2023-03-30T12:53:10.485Z,15.70
2023-03-30T12:55:50.060Z,14.18
2023-03-30T12:58:26.721Z,12.90
2023-03-30T13:01:31.976Z,15.80
2023-03-30T13:04:09.852Z,11.73
2023-03-30T13:06:51.141Z,17.27
2023-03-30T13:09:22.320Z,9.00
2023-03-30T13:11:49.952Z,10.10
2023-03-30T13:14:16.381Z,16.45
2023-03-30T13:16:52.562Z,12.77
2023-03-30T13:19:37.241Z,11.05
2023-03-30T13:22:12.852Z,12.80
2023-03-30T13:24:45.834Z,15.07
2023-03-30T13:27:18.392Z,13.98
2023-03-30T13:29:58.383Z,14.63
2023-03-30T13:33:12.208Z,28.55
2023-03-30T13:36:15.113Z,25.98
2023-03-30T13:39:30.631Z,15.67
2023-03-30T13:42:09.948Z,18.98
2023-03-30T13:45:05.889Z,19.52
2023-03-30T13:48:04.723Z,12.73
2023-03-30T13:50:34.647Z,17.83
2023-03-30T13:53:15.691Z,10.17
2023-03-30T13:55:45.267Z,10.95
2023-03-30T13:58:27.513Z,10.63
2023-03-30T14:00:59.536Z,12.60
2023-03-30T14:03:32.028Z,11.00
2023-03-30T14:06:02.611Z,15.33
2023-03-30T14:08:34.110Z,12.32
2023-03-30T14:11:03.637Z,8.55
2023-03-30T14:13:30.464Z,23.08
2023-03-30T14:15:57.007Z,13.15
2023-03-30T14:18:25.145Z,15.83
2023-03-30T14:21:00.230Z,16.52
2023-03-30T14:23:31.743Z,10.45
2023-03-30T14:26:00.871Z,22.13
2023-03-30T14:28:29.835Z,19.60
2023-03-30T14:31:13.410Z,12.33
2023-03-30T14:33:41.212Z,14.43
2023-03-30T14:36:11.645Z,7.80
2023-03-30T14:38:40.787Z,11.20
2023-03-30T14:41:24.399Z,16.05
2023-03-30T14:43:58.781Z,13.17
2023-03-30T14:46:31.673Z,11.65
2023-03-30T14:48:58.189Z,12.43
2023-03-30T14:51:41.445Z,15.68
2023-03-30T14:54:15.060Z,13.75
2023-03-30T14:56:45.011Z,12.60
2023-03-30T14:59:16.430Z,11.00
2023-03-30T15:01:44.059Z,9.75
2023-03-30T15:04:15.108Z,18.67
2023-03-30T15:06:42.347Z,9.68
2023-03-30T15:09:17.411Z,12.03
2023-03-30T15:11:47.673Z,13.15
2023-03-30T15:14:21.402Z,10.90
2023-03-30T15:16:53.531Z,13.85
2023-03-30T15:19:30.718Z,11.65
2023-03-30T15:22:01.334Z,11.13
2023-03-30T15:24:32.434Z,10.57
2023-03-30T15:27:02.843Z,8.10
2023-03-30T15:29:29.807Z,10.63
2023-03-30T15:32:11.340Z,9.35
2023-03-30T15:34:58.884Z,11.57
2023-03-30T15:37:25.450Z,10.02
2023-03-30T15:39:52.373Z,8.75
2023-03-30T15:42:40.928Z,14.57
2023-03-30T15:45:13.926Z,13.90
2023-03-30T15:47:41.571Z,10.47
2023-03-30T15:50:13.541Z,21.40
2023-03-30T15:52:44.668Z,14.65
2023-03-30T15:55:28.763Z,14.07
2023-03-30T15:57:55.751Z,6.95
2023-03-30T16:00:27.138Z,7.17
2023-03-30T16:02:59.662Z,9.07
2023-03-30T16:05:29.146Z,7.13
2023-03-30T16:07:55.719Z,9.75
2023-03-30T16:10:32.803Z,7.18
2023-03-30T16:13:00.818Z,7.60
2023-03-30T16:15:30.288Z,10.55
2023-03-30T16:17:57.325Z,4.68
2023-03-30T16:20:30.708Z,6.55
2023-03-30T16:22:57.384Z,6.38
2023-03-30T16:25:43.673Z,6.27
2023-03-30T16:28:16.131Z,9.38
2023-03-30T16:30:46.120Z,8.70
2023-03-30T16:33:12.684Z,12.18
2023-03-30T16:35:39.172Z,4.50
2023-03-30T16:38:05.766Z,8.37
2023-03-30T16:40:43.302Z,9.75
2023-03-30T16:43:10.246Z,9.43
2023-03-30T16:45:37.194Z,7.05
2023-03-30T16:48:04.048Z,6.80
2023-03-30T16:50:41.216Z,9.30
2023-03-30T16:53:11.524Z,7.25
2023-03-30T16:55:39.212Z,6.60
2023-03-30T16:58:07.267Z,7.47
2023-03-30T17:00:41.052Z,10.50
2023-03-30T17:03:08.424Z,10.67
2023-03-30T17:05:35.530Z,8.02
2023-03-30T17:08:04.651Z,10.05
2023-03-30T17:10:34.030Z,9.57
2023-03-30T17:13:00.975Z,11.65
2023-03-30T17:15:28.016Z,8.00
2023-03-30T17:17:55.253Z,10.70
2023-03-30T17:20:42.849Z,7.90
2023-03-30T17:23:10.204Z,10.05
2023-03-30T17:25:39.586Z,6.78
2023-03-30T17:28:09.862Z,11.40
2023-03-30T17:30:41.854Z,11.55
2023-03-30T17:33:10.773Z,12.40
2023-03-30T17:35:40.963Z,13.77
2023-03-30T17:38:09.271Z,9.48
2023-03-30T17:40:39.807Z,10.80
2023-03-30T17:43:07.738Z,9.20
2023-03-30T17:45:35.545Z,7.75
2023-03-30T17:48:03.249Z,8.88
2023-03-30T17:50:39.297Z,10.88
2023-03-30T17:53:05.878Z,6.27
2023-03-30T17:55:33.385Z,25.05
2023-03-30T17:58:00.489Z,8.98
2023-03-30T18:00:30.042Z,14.68
2023-03-30T18:02:56.734Z,14.80
2023-03-30T18:05:25.725Z,36.17
2023-03-30T18:07:53.493Z,13.18
2023-03-30T18:10:27.372Z,7.35
2023-03-30T18:12:54.814Z,10.73
2023-03-30T18:15:25.548Z,8.48
2023-03-30T18:17:52.825Z,7.80
2023-03-30T18:20:25.301Z,14.88
2023-03-30T18:22:52.059Z,10.25
2023-03-30T18:25:29.808Z,8.27
2023-03-30T18:27:59.065Z,7.10
2023-03-30T18:30:37.547Z,12.10
2023-03-30T18:33:05.509Z,6.68
2023-03-30T18:35:34.739Z,11.77
2023-03-30T18:38:02.063Z,9.32
2023-03-30T18:40:37.074Z,9.40
2023-03-30T18:43:04.775Z,10.70
2023-03-30T18:45:40.273Z,9.40
2023-03-30T18:48:08.563Z,14.05
2023-03-30T18:50:46.587Z,8.88
2023-03-30T18:53:18.944Z,9.60
2023-03-30T18:55:47.639Z,6.77
2023-03-30T18:58:23.282Z,8.60
2023-03-30T19:00:51.784Z,11.00
2023-03-30T19:03:19.678Z,10.63
2023-03-30T19:05:46.290Z,14.35
2023-03-30T19:08:18.493Z,12.10
2023-03-30T19:10:47.625Z,10.13
2023-03-30T19:13:15.825Z,15.80
2023-03-30T19:15:42.927Z,10.15
2023-03-30T19:18:09.932Z,9.90
2023-03-30T19:20:39.805Z,8.87
2023-03-30T19:23:07.223Z,10.02
2023-03-30T19:25:34.085Z,9.63
2023-03-30T19:28:03.347Z,10.15
2023-03-30T19:30:33.287Z,12.57
2023-03-30T19:33:03.359Z,12.07
2023-03-30T19:35:30.556Z,10.82
2023-03-30T19:37:57.680Z,10.18
2023-03-30T19:40:24.291Z,12.38
2023-03-30T19:42:50.820Z,17.98
2023-03-30T19:45:20.260Z,9.80
2023-03-30T19:47:46.994Z,7.07
2023-03-30T19:50:17.763Z,14.73
2023-03-30T19:52:47.100Z,17.08
2023-03-30T19:55:13.578Z,13.52
2023-03-30T19:57:40.116Z,12.00
2023-03-30T20:00:12.465Z,12.55
2023-03-30T20:02:39.794Z,9.98
2023-03-30T20:05:07.104Z,14.32
2023-03-30T20:07:33.522Z,15.00
2023-03-30T20:09:59.894Z,10.73
2023-03-30T20:12:26.326Z,11.23
2023-03-30T20:14:52.912Z,10.40
2023-03-30T20:17:21.885Z,12.30
2023-03-30T20:19:48.426Z,9.27
2023-03-30T20:22:14.898Z,10.47
2023-03-30T20:24:42.472Z,8.52
2023-03-30T20:27:11.100Z,9.13
2023-03-30T20:29:37.576Z,10.32
2023-03-30T20:32:04.335Z,13.45
2023-03-30T20:34:31.553Z,9.30
2023-03-30T20:36:57.961Z,11.70
2023-03-30T20:39:26.739Z,9.13
2023-03-30T20:41:58.151Z,8.30
2023-03-30T20:44:29.912Z,10.07
2023-03-30T20:47:02.514Z,10.73
2023-03-30T20:49:29.197Z,12.50
2023-03-30T20:51:55.732Z,10.80
2023-03-30T20:54:22.284Z,12.55
2023-03-30T20:56:48.765Z,8.00
2023-03-30T20:59:16.437Z,18.57
2023-03-30T21:01:43.508Z,9.15
2023-03-30T21:04:10.001Z,15.45
2023-03-30T21:06:36.626Z,12.27
2023-03-30T21:09:05.856Z,12.48
2023-03-30T21:11:35.134Z,13.03
2023-03-30T21:14:02.198Z,12.23
2023-03-30T21:16:31.344Z,10.77
2023-03-30T21:18:57.906Z,6.47
2023-03-30T21:21:24.651Z,10.70
2023-03-30T21:23:51.059Z,10.63
2023-03-30T21:26:20.299Z,9.95
2023-03-30T21:28:46.700Z,9.10
2023-03-30T21:31:17.138Z,7.90
2023-03-30T21:33:44.126Z,11.95
2023-03-30T21:36:11.996Z,9.73
2023-03-30T21:38:38.618Z,12.13
2023-03-30T21:41:06.155Z,9.80
2023-03-30T21:43:35.160Z,10.05
2023-03-30T21:46:12.723Z,10.63
2023-03-30T21:48:41.533Z,8.67
2023-03-30T21:51:13.610Z,14.20
2023-03-30T21:53:41.454Z,11.88
2023-03-30T21:56:08.774Z,9.18
2023-03-30T21:58:35.535Z,12.52
2023-03-30T22:01:11.958Z,7.37
2023-03-30T22:03:40.680Z,9.85
2023-03-30T22:06:09.399Z,10.30
2023-03-30T22:08:36.346Z,7.13
2023-03-30T22:11:08.634Z,13.10
2023-03-30T22:13:35.235Z,12.13
2023-03-30T22:16:05.174Z,5.82
2023-03-30T22:18:31.854Z,7.43
2023-03-30T22:20:59.991Z,8.68
2023-03-30T22:23:26.889Z,9.43
2023-03-30T22:25:53.499Z,11.37
2023-03-30T22:28:20.357Z,11.40
2023-03-30T22:30:47.082Z,11.07
2023-03-30T22:33:13.590Z,9.25
2023-03-30T22:35:41.872Z,8.25
2023-03-30T22:38:09.951Z,11.43
2023-03-30T22:40:36.771Z,8.40
2023-03-30T22:43:03.465Z,12.32
2023-03-30T22:45:30.852Z,9.75
2023-03-30T22:47:58.751Z,13.52
2023-03-30T22:50:27.509Z,13.33
2023-03-30T22:52:55.174Z,9.13
2023-03-30T22:55:22.212Z,9.77
2023-03-30T22:57:51.134Z,11.20
2023-03-30T23:00:17.921Z,11.07
2023-03-30T23:02:44.686Z,12.67
2023-03-30T23:05:15.034Z,12.27
2023-03-30T23:07:44.009Z,10.23
2023-03-30T23:10:15.272Z,10.57
2023-03-30T23:12:42.975Z,6.88
2023-03-30T23:15:10.982Z,10.73
2023-03-30T23:17:38.260Z,8.43
2023-03-30T23:20:06.660Z,11.02
2023-03-30T23:22:33.124Z,12.73
2023-03-30T23:24:59.573Z,9.15
2023-03-30T23:27:26.102Z,10.63
2023-03-30T23:29:52.657Z,8.57
2023-03-30T23:32:19.371Z,9.43
2023-03-30T23:34:46.522Z,11.73
2023-03-30T23:37:13.168Z,7.90
2023-03-30T23:39:39.624Z,9.10
2023-03-30T23:42:06.508Z,10.20
2023-03-30T23:44:33.352Z,9.52
2023-03-30T23:46:59.817Z,7.35
2023-03-30T23:49:26.446Z,9.77
2023-03-30T23:51:53.282Z,10.80
2023-03-30T23:54:19.774Z,8.90
2023-03-30T23:56:46.990Z,10.05
2023-03-30T23:59:13.572Z,5.78
